Time;durP1;ratioP1;P1;durP2;ratioP2;P2;SDS_P1;SDS_P2;PMS_P1;PMS_P2;Temp;Humidity;BMP_temperature;BMP_pressure;BME280_temperature;BME280_humidity;BME280_pressure;Samples;Min_cycle;Max_cycle;Signal;HPM_P1;HPM_P2
2023/11/28 00:01:57;;;;;;;0.30;0.10;;;;;;;6.53;100.00;97809.19;5031975;28;20503;-56
2023/11/28 00:04:23;;;;;;;0.30;0.20;;;;;;;6.74;100.00;97812.50;5026545;28;20868;-55
2023/11/28 00:06:52;;;;;;;0.30;0.10;;;;;;;6.61;99.62;97806.19;5030591;28;20492;-56
2023/11/28 00:09:18;;;;;;;0.30;0.20;;;;;;;6.66;100.00;97806.78;5019511;28;20768;-56
2023/11/28 00:11:45;;;;;;;0.30;0.20;;;;;;;6.72;100.00;97809.09;5029336;28;20876;-56
2023/11/28 00:14:11;;;;;;;0.30;0.20;;;;;;;6.56;100.00;97804.69;5019767;28;20487;-57
2023/11/28 00:16:38;;;;;;;0.27;0.20;;;;;;;6.56;100.00;97805.53;5031684;28;20448;-55
2023/11/28 00:19:05;;;;;;;0.30;0.20;;;;;;;6.61;100.00;97797.41;5031829;28;21278;-57
2023/11/28 00:21:31;;;;;;;0.30;0.20;;;;;;;6.64;100.00;97792.81;5031434;28;20514;-55
2023/11/28 00:23:58;;;;;;;0.30;0.20;;;;;;;6.66;100.00;97793.56;5021934;28;20953;-56
2023/11/28 00:26:24;;;;;;;0.30;0.20;;;;;;;6.66;100.00;97787.44;5027815;28;20539;-56
2023/11/28 00:28:51;;;;;;;0.30;0.10;;;;;;;6.65;100.00;97781.31;5032315;28;20523;-56
2023/11/28 00:31:17;;;;;;;0.30;0.20;;;;;;;6.69;100.00;97782.00;5029225;28;20565;-56
2023/11/28 00:33:45;;;;;;;0.30;0.20;;;;;;;6.68;100.00;97788.22;5014340;28;20449;-56
2023/11/28 00:36:15;;;;;;;0.30;0.20;;;;;;;6.66;100.00;97779.53;5028750;28;20451;-55
2023/11/28 00:38:41;;;;;;;0.30;0.20;;;;;;;6.64;100.00;97776.13;5031888;28;20458;-56
2023/11/28 00:41:09;;;;;;;0.30;0.10;;;;;;;6.78;100.00;97778.88;5031910;28;20478;-55
2023/11/28 00:43:36;;;;;;;0.30;0.20;;;;;;;6.76;100.00;97781.59;5031901;28;20537;-56
2023/11/28 00:46:02;;;;;;;0.30;0.20;;;;;;;6.87;99.82;97777.53;5033455;28;20490;-55
2023/11/28 00:48:29;;;;;;;0.90;0.90;;;;;;;6.84;99.86;97776.75;5036269;28;20487;-56
2023/11/28 00:50:56;;;;;;;0.30;0.20;;;;;;;6.90;99.47;97777.38;5036357;28;20903;-56
2023/11/28 00:53:23;;;;;;;0.30;0.20;;;;;;;6.84;100.00;97776.75;5035951;28;20933;-55
2023/11/28 00:55:50;;;;;;;0.30;0.20;;;;;;;6.73;100.00;97783.56;5036268;28;20541;-56
2023/11/28 00:58:16;;;;;;;0.30;0.20;;;;;;;6.84;100.00;97786.44;5035888;28;20452;-56
2023/11/28 01:00:43;;;;;;;0.30;0.20;;;;;;;6.88;100.00;97780.09;5035558;28;20846;-55
2023/11/28 01:03:09;;;;;;;0.30;0.17;;;;;;;6.89;99.69;97778.31;5026518;28;20587;-55
2023/11/28 01:05:36;;;;;;;0.30;0.20;;;;;;;6.91;100.00;97781.72;5029005;28;20953;-56
2023/11/28 01:08:03;;;;;;;0.30;0.20;;;;;;;6.98;99.79;97773.34;5024595;28;20499;-55
2023/11/28 01:10:29;;;;;;;0.30;0.20;;;;;;;6.88;100.00;97776.59;5033912;28;20499;-56
2023/11/28 01:12:56;;;;;;;0.30;0.20;;;;;;;6.86;100.00;97773.19;5024578;28;20460;-56
2023/11/28 01:15:22;;;;;;;0.30;0.20;;;;;;;6.94;100.00;97774.47;5034135;28;20447;-56
2023/11/28 01:17:49;;;;;;;0.30;0.20;;;;;;;6.87;100.00;97783.66;5035650;28;21135;-56
2023/11/28 01:20:15;;;;;;;0.30;0.20;;;;;;;6.84;100.00;97776.75;5035146;28;20479;-56
2023/11/28 01:22:42;;;;;;;0.30;0.17;;;;;;;6.84;99.87;97778.53;5035643;28;20538;-56
2023/11/28 01:25:08;;;;;;;0.30;0.20;;;;;;;6.78;100.00;97789.44;5035380;28;20855;-56
2023/11/28 01:27:35;;;;;;;0.30;0.20;;;;;;;6.87;100.00;97785.47;5035106;28;20642;-56
2023/11/28 01:30:02;;;;;;;0.30;0.20;;;;;;;6.83;100.00;97788.25;5035586;28;20836;-57
2023/11/28 01:32:29;;;;;;;0.30;0.20;;;;;;;7.06;100.00;97786.16;5035516;28;20447;-56
2023/11/28 01:34:57;;;;;;;0.30;0.20;;;;;;;7.01;100.00;97781.13;5029707;28;20547;-57
2023/11/28 01:37:23;;;;;;;0.30;0.20;;;;;;;7.00;100.00;97782.06;5027702;28;20471;-56
2023/11/28 01:39:50;;;;;;;0.30;0.20;;;;;;;7.03;100.00;97781.03;5035095;28;20459;-56
2023/11/28 01:42:16;;;;;;;0.30;0.17;;;;;;;7.03;100.00;97779.25;5035386;28;20562;-55
2023/11/28 01:44:43;;;;;;;0.30;0.20;;;;;;;6.96;99.92;97788.44;5035354;28;20554;-56
2023/11/28 01:47:10;;;;;;;0.30;0.20;;;;;;;6.99;100.00;97782.13;5035027;28;20522;-56
2023/11/28 01:49:37;;;;;;;0.30;0.20;;;;;;;6.93;100.00;97790.38;5034599;28;20974;-56
2023/11/28 01:52:05;;;;;;;0.30;0.20;;;;;;;6.77;100.00;97785.09;5035198;28;20467;-56
2023/11/28 01:54:32;;;;;;;0.30;0.20;;;;;;;6.96;100.00;97788.44;5035019;28;20455;-56
2023/11/28 01:56:58;;;;;;;0.30;0.20;;;;;;;6.92;100.00;97786.03;5034471;28;21012;-55
2023/11/28 01:59:25;;;;;;;0.30;0.10;;;;;;;6.97;100.00;97791.91;5034949;28;20526;-55
2023/11/28 02:01:52;;;;;;;0.30;0.20;;;;;;;6.94;100.00;97787.66;5034411;28;20490;-55
2023/11/28 02:04:18;;;;;;;0.30;0.20;;;;;;;6.88;100.00;97795.94;5030504;28;20457;-56
2023/11/28 02:06:46;;;;;;;0.30;0.20;;;;;;;6.88;100.00;97792.44;5034151;28;20883;-56
2023/11/28 02:09:12;;;;;;;0.30;0.20;;;;;;;6.92;100.00;97796.63;5034718;28;20493;-56
2023/11/28 02:11:38;;;;;;;0.30;0.20;;;;;;;6.88;100.00;97800.34;5033127;28;20486;-56
2023/11/28 02:14:05;;;;;;;0.30;0.17;;;;;;;6.95;100.00;97799.94;5023028;28;20534;-56
2023/11/28 02:16:33;;;;;;;0.30;0.20;;;;;;;6.89;100.00;97799.44;5034843;28;20459;-57
2023/11/28 02:19:02;;;;;;;0.30;0.20;;;;;;;6.86;100.00;97803.09;5034461;28;20452;-56
2023/11/28 02:21:28;;;;;;;0.30;0.10;;;;;;;6.82;100.00;97802.38;5034006;28;20984;-56
2023/11/28 02:23:55;;;;;;;0.30;0.20;;;;;;;6.77;100.00;97804.41;5034056;28;20452;-57
2023/11/28 02:26:25;;;;;;;0.30;0.20;;;;;;;6.79;100.00;97804.34;5062950;22;20551;-54
2023/11/28 02:28:53;;;;;;;0.30;0.20;;;;;;;6.68;100.00;97789.06;5073451;28;20496;-54
2023/11/28 02:31:20;;;;;;;0.30;0.20;;;;;;;6.68;100.00;97804.03;5073663;28;20481;-55
2023/11/28 02:33:46;;;;;;;0.30;0.20;;;;;;;6.71;100.00;97802.09;5073688;28;20453;-53
2023/11/28 02:36:14;;;;;;;0.30;0.20;;;;;;;6.65;100.00;97797.16;5065876;28;20558;-54
2023/11/28 02:38:41;;;;;;;0.30;0.10;;;;;;;6.64;100.00;97795.44;5053870;28;20508;-54
2023/11/28 02:41:08;;;;;;;0.30;0.20;;;;;;;6.65;100.00;97801.56;5053353;28;20936;-54
2023/11/28 02:43:34;;;;;;;0.30;0.20;;;;;;;6.58;100.00;97810.72;5052926;28;20459;-55
2023/11/28 02:46:01;;;;;;;0.30;0.20;;;;;;;6.60;100.00;97815.03;5040240;28;20867;-55
2023/11/28 02:48:27;;;;;;;0.30;0.20;;;;;;;6.54;100.00;97820.59;5053577;28;20490;-55
2023/11/28 02:50:54;;;;;;;0.23;0.13;;;;;;;6.64;100.00;97813.06;5038577;28;20457;-55
2023/11/28 02:53:20;;;;;;;0.30;0.20;;;;;;;6.42;100.00;97822.09;5054124;28;20482;-54
2023/11/28 02:55:47;;;;;;;0.30;0.20;;;;;;;6.47;100.00;97828.00;5054047;28;20498;-55
2023/11/28 02:58:13;;;;;;;0.30;0.20;;;;;;;6.47;100.00;97837.72;5042222;28;21036;-55
2023/11/28 03:00:40;;;;;;;0.30;0.10;;;;;;;6.38;100.00;97846.94;5052649;28;20546;-54
2023/11/28 03:03:06;;;;;;;0.30;0.20;;;;;;;6.24;100.00;97842.38;5053486;28;20493;-52
2023/11/28 03:05:33;;;;;;;0.30;0.20;;;;;;;6.00;100.00;97855.91;5046982;28;20462;-53
2023/11/28 03:07:59;;;;;;;0.30;0.20;;;;;;;6.14;100.00;97858.72;5041913;28;20495;-52
2023/11/28 03:10:26;;;;;;;0.30;0.10;;;;;;;5.84;100.00;97876.88;5046158;28;20924;-53
2023/11/28 03:12:52;;;;;;;0.30;0.20;;;;;;;5.92;99.14;97885.31;5041524;28;20467;-53
2023/11/28 03:15:19;;;;;;;0.30;0.20;;;;;;;5.76;98.43;97881.69;5054785;28;20530;-54
2023/11/28 03:17:45;;;;;;;0.27;0.10;;;;;;;5.63;98.89;97884.03;5057058;28;20486;-52
2023/11/28 03:20:12;;;;;;;0.30;0.10;;;;;;;5.39;98.14;97893.09;5057480;28;20496;-53
2023/11/28 03:22:40;;;;;;;0.30;0.20;;;;;;;5.27;97.96;97891.88;5057989;28;20481;-53
2023/11/28 03:25:09;;;;;;;0.30;0.20;;;;;;;5.27;98.54;97890.09;5051074;28;20460;-49
2023/11/28 03:27:36;;;;;;;0.30;0.10;;;;;;;5.17;99.50;97890.56;5044674;28;20544;-51
2023/11/28 03:30:04;;;;;;;0.30;0.20;;;;;;;5.07;98.87;97898.03;5052401;28;20447;-50
2023/11/28 03:32:30;;;;;;;0.20;0.10;;;;;;;5.16;99.04;97897.63;5052403;28;20951;-51
2023/11/28 03:34:57;;;;;;;0.20;0.10;;;;;;;4.95;99.22;97907.34;5052270;28;20455;-50
2023/11/28 03:37:25;;;;;;;0.20;0.10;;;;;;;4.95;98.60;97909.97;5052559;28;20540;-50
2023/11/28 03:39:51;;;;;;;0.20;0.10;;;;;;;4.96;99.67;97919.59;5052437;28;20553;-50
2023/11/28 03:42:18;;;;;;;0.20;0.10;;;;;;;4.83;99.83;97926.31;5052328;28;20457;-50
2023/11/28 03:44:44;;;;;;;0.20;0.10;;;;;;;4.95;99.71;97931.03;5052215;28;20454;-52
2023/11/28 03:47:11;;;;;;;0.20;0.10;;;;;;;4.78;99.62;97930.91;5051942;28;20509;-50
2023/11/28 03:49:37;;;;;;;0.20;0.10;;;;;;;4.67;100.00;97939.28;5045173;28;20553;-50
2023/11/28 03:52:04;;;;;;;0.30;0.20;;;;;;;4.63;99.95;97936.81;5045592;28;20455;-50
2023/11/28 03:54:31;;;;;;;0.20;0.10;;;;;;;4.66;99.93;97950.72;5052233;28;20452;-50
2023/11/28 03:56:57;;;;;;;0.20;0.20;;;;;;;4.61;99.80;97957.94;5051990;28;20553;-51
2023/11/28 03:59:23;;;;;;;0.30;0.20;;;;;;;4.51;100.00;97961.88;5051715;28;20443;-50
2023/11/28 04:01:50;;;;;;;11.60;11.00;;;;;;;4.31;100.00;97978.47;5038506;28;20542;-51
2023/11/28 04:04:16;;;;;;;0.20;0.10;;;;;;;4.21;100.00;97977.13;5046972;28;20547;-50
2023/11/28 04:06:43;;;;;;;0.20;0.20;;;;;;;4.30;100.00;97986.44;5051394;28;20470;-50
2023/11/28 04:09:10;;;;;;;0.30;0.20;;;;;;;4.21;100.00;98005.19;5039070;28;20582;-51
2023/11/28 04:11:36;;;;;;;0.30;0.20;;;;;;;4.13;100.00;98006.38;5051113;28;20546;-50
2023/11/28 04:14:03;;;;;;;0.30;0.20;;;;;;;4.03;100.00;98012.06;5038765;28;20820;-52
2023/11/28 04:16:30;;;;;;;0.20;0.20;;;;;;;4.04;100.00;98019.88;5051833;28;20896;-51
2023/11/28 04:18:56;;;;;;;0.30;0.20;;;;;;;4.04;100.00;98019.88;5051955;28;20908;-50
2023/11/28 04:21:23;;;;;;;0.20;0.10;;;;;;;3.94;100.00;98020.28;5051777;28;20472;-50
2023/11/28 04:23:49;;;;;;;0.20;0.10;;;;;;;3.93;100.00;98022.06;5053186;28;20455;-50
2023/11/28 04:26:16;;;;;;;0.20;0.20;;;;;;;4.11;100.00;98033.63;5049623;28;20569;-51
2023/11/28 04:28:42;;;;;;;0.20;0.20;;;;;;;3.97;100.00;98042.03;5039613;28;20495;-50
2023/11/28 04:31:20;;;;;;;0.30;0.20;;;;;;;4.15;100.00;98046.59;5051827;28;20462;-50
2023/11/28 04:33:47;;;;;;;0.20;0.10;;;;;;;4.06;100.00;98053.97;5051168;28;20497;-50
2023/11/28 04:36:17;;;;;;;0.20;0.10;;;;;;;4.23;100.00;98064.69;5037132;28;20475;-50
2023/11/28 04:38:44;;;;;;;0.20;0.10;;;;;;;4.26;100.00;98069.84;5051662;28;20538;-50
2023/11/28 04:41:14;;;;;;;0.20;0.10;;;;;;;4.19;100.00;98080.66;5051445;28;20450;-51
2023/11/28 04:43:41;;;;;;;0.20;0.13;;;;;;;4.25;100.00;98083.91;5083887;28;20447;-50
2023/11/28 04:46:08;;;;;;;0.20;0.10;;;;;;;4.25;100.00;98089.19;5051523;28;20473;-50
2023/11/28 04:48:34;;;;;;;0.20;0.10;;;;;;;4.38;100.00;98093.00;5051236;28;20488;-50
2023/11/28 04:51:01;;;;;;;0.20;0.10;;;;;;;4.47;100.00;98097.91;5038106;28;20489;-50
2023/11/28 04:53:27;;;;;;;0.20;0.20;;;;;;;4.36;100.00;98107.16;5051476;28;20455;-50
2023/11/28 04:55:54;;;;;;;0.20;0.10;;;;;;;4.41;100.00;98108.69;5060500;28;20560;-50
2023/11/28 04:58:21;;;;;;;0.20;0.20;;;;;;;4.49;100.00;98116.28;5044065;28;20501;-50
2023/11/28 05:00:48;;;;;;;0.20;0.20;;;;;;;4.55;100.00;98123.09;5051263;28;21027;-50
2023/11/28 05:03:15;;;;;;;0.20;0.10;;;;;;;4.44;100.00;98126.13;5051181;28;20459;-51
2023/11/28 05:05:41;;;;;;;0.30;0.20;;;;;;;4.42;100.00;98123.56;5045554;28;20471;-50
2023/11/28 05:08:08;;;;;;;0.30;0.10;;;;;;;4.43;100.00;98132.31;5039110;28;20584;-51
2023/11/28 05:10:34;;;;;;;0.20;0.20;;;;;;;4.36;100.00;98143.97;5049717;28;20512;-50
2023/11/28 05:13:03;;;;;;;0.20;0.20;;;;;;;4.31;100.00;98136.25;5039001;28;20495;-51
2023/11/28 05:15:29;;;;;;;0.20;0.17;;;;;;;4.26;100.00;98150.50;5050298;28;20537;-52
2023/11/28 05:17:55;;;;;;;0.20;0.20;;;;;;;4.37;100.00;98146.53;5051282;28;20451;-50
2023/11/28 05:20:22;;;;;;;0.20;0.20;;;;;;;4.38;100.00;98147.38;5051087;28;20475;-51
2023/11/28 05:22:48;;;;;;;0.20;0.10;;;;;;;4.46;100.00;98156.72;5050448;28;20451;-50
2023/11/28 05:25:15;;;;;;;0.20;0.10;;;;;;;4.32;100.00;98161.63;5037597;28;20454;-53
2023/11/28 05:27:42;;;;;;;0.20;0.10;;;;;;;4.38;100.00;98168.41;5050960;28;20947;-50
2023/11/28 05:30:09;;;;;;;0.20;0.10;;;;;;;4.42;100.00;98172.69;5050687;28;20497;-51
2023/11/28 05:32:35;;;;;;;0.20;0.10;;;;;;;4.30;100.00;98176.63;5053171;28;20447;-52
2023/11/28 05:35:02;;;;;;;0.20;0.10;;;;;;;4.43;100.00;98177.03;5047940;28;20455;-50
2023/11/28 05:37:30;;;;;;;0.20;0.10;;;;;;;4.37;100.00;98187.75;5047177;28;20477;-51
2023/11/28 05:39:58;;;;;;;0.20;0.13;;;;;;;4.43;100.00;98198.06;5041391;28;20447;-51
2023/11/28 05:42:24;;;;;;;0.20;0.10;;;;;;;4.23;100.00;98197.94;5054506;28;20450;-50
2023/11/28 05:44:51;;;;;;;0.20;0.10;;;;;;;4.24;100.00;98208.38;5054371;28;20541;-51
2023/11/28 05:47:18;;;;;;;0.20;0.10;;;;;;;4.25;100.00;98211.88;5054224;28;20557;-50
2023/11/28 05:49:45;;;;;;;0.20;0.10;;;;;;;4.22;100.00;98212.84;5054169;28;20540;-50
2023/11/28 05:52:11;;;;;;;0.20;0.20;;;;;;;4.20;100.00;98219.94;5039851;28;20462;-52
2023/11/28 05:54:38;;;;;;;0.20;0.10;;;;;;;4.25;100.00;98230.28;5053974;28;20893;-50
2023/11/28 05:57:04;;;;;;;0.20;0.10;;;;;;;4.03;100.00;98228.44;5052241;28;20597;-50
2023/11/28 05:59:31;;;;;;;0.20;0.10;;;;;;;4.00;100.00;98233.81;5042443;28;20449;-51
2023/11/28 06:01:59;;;;;;;0.20;0.20;;;;;;;4.09;100.00;98245.75;5054042;28;20843;-50
2023/11/28 06:04:29;;;;;;;0.20;0.10;;;;;;;4.07;100.00;98244.94;5048797;28;20442;-51
2023/11/28 06:06:56;;;;;;;0.20;0.20;;;;;;;4.11;100.00;98260.59;5051954;28;20473;-50
2023/11/28 06:09:25;;;;;;;0.20;0.20;;;;;;;4.17;100.00;98270.00;5043010;28;20570;-50
2023/11/28 06:11:51;;;;;;;0.20;0.20;;;;;;;4.13;100.00;98269.25;5052249;28;21035;-50
2023/11/28 06:14:19;;;;;;;0.20;0.10;;;;;;;3.91;100.00;98270.06;5052644;28;20491;-50
2023/11/28 06:16:46;;;;;;;0.20;0.10;;;;;;;3.97;100.00;98285.59;5049632;28;20526;-50
2023/11/28 06:19:14;;;;;;;0.20;0.13;;;;;;;3.99;100.00;98286.44;5053096;28;20448;-50
2023/11/28 06:21:40;;;;;;;0.20;0.10;;;;;;;3.90;100.00;98300.72;5043532;28;20940;-51
2023/11/28 06:24:07;;;;;;;0.20;0.20;;;;;;;4.05;100.00;98296.72;5051964;28;20561;-50
2023/11/28 06:26:33;;;;;;;0.20;0.10;;;;;;;3.89;100.00;98311.31;5047666;28;20485;-50
2023/11/28 06:29:00;;;;;;;0.20;0.10;;;;;;;3.90;100.00;98316.50;5052941;28;20522;-51
2023/11/28 06:31:26;;;;;;;0.20;0.10;;;;;;;3.85;100.00;98327.19;5052599;28;20825;-50
2023/11/28 06:33:52;;;;;;;0.20;0.10;;;;;;;3.79;100.00;98330.00;5052918;28;20516;-51
2023/11/28 06:36:19;;;;;;;0.20;0.10;;;;;;;3.98;100.00;98337.28;5041099;28;20566;-50
2023/11/28 06:38:46;;;;;;;0.20;0.10;;;;;;;4.01;100.00;98345.91;5034217;28;20933;-51
2023/11/28 06:41:13;;;;;;;0.20;0.10;;;;;;;3.87;100.00;98350.78;5046091;28;20456;-51
2023/11/28 06:43:39;;;;;;;0.20;0.10;;;;;;;3.88;99.83;98360.38;5043907;28;20457;-51
2023/11/28 06:46:06;;;;;;;0.20;0.10;;;;;;;3.81;98.91;98359.69;5047933;28;20884;-50
2023/11/28 06:48:33;;;;;;;0.20;0.13;;;;;;;3.78;98.47;98370.31;5043633;28;20486;-50
2023/11/28 06:51:00;;;;;;;0.20;0.10;;;;;;;3.92;99.47;98382.16;5051662;28;20494;-51
2023/11/28 06:53:27;;;;;;;0.30;0.20;;;;;;;3.76;99.79;98393.16;5052046;28;20462;-50
2023/11/28 06:55:53;;;;;;;0.20;0.10;;;;;;;3.92;99.62;98400.53;5052567;28;20475;-50
2023/11/28 06:58:20;;;;;;;0.20;0.10;;;;;;;3.71;99.41;98405.59;5052849;28;20450;-52
2023/11/28 07:00:47;;;;;;;0.20;0.10;;;;;;;3.80;99.75;98412.31;5052417;28;20821;-51
2023/11/28 07:03:17;;;;;;;0.20;0.20;;;;;;;3.84;99.38;98419.22;5043881;28;20456;-51
2023/11/28 07:05:44;;;;;;;0.20;0.20;;;;;;;3.66;99.34;98422.38;5047621;28;20478;-51
2023/11/28 07:08:14;;;;;;;0.20;0.10;;;;;;;3.87;99.28;98432.25;5045963;28;20534;-51
2023/11/28 07:10:40;;;;;;;0.20;0.10;;;;;;;3.70;98.61;98443.28;5052527;28;20593;-51
2023/11/28 07:13:07;;;;;;;0.20;0.10;;;;;;;3.75;99.64;98453.63;5046336;28;20459;-51
2023/11/28 07:15:36;;;;;;;0.20;0.10;;;;;;;3.73;98.37;98452.84;5049997;28;20566;-50
2023/11/28 07:18:03;;;;;;;0.20;0.10;;;;;;;3.76;99.09;98466.72;5067381;28;20538;-49
2023/11/28 07:20:30;;;;;;;0.20;0.20;;;;;;;3.82;99.72;98473.53;5038192;28;20462;-52
2023/11/28 07:22:57;;;;;;;0.20;0.13;;;;;;;3.66;99.00;98482.81;5048519;28;20459;-51
2023/11/28 07:25:23;;;;;;;0.20;0.10;;;;;;;3.72;99.24;98482.63;5044908;28;20451;-50
2023/11/28 07:27:49;;;;;;;0.20;0.10;;;;;;;3.65;98.30;98502.09;5049253;28;21014;-52
2023/11/28 07:30:16;;;;;;;0.20;0.10;;;;;;;3.75;98.58;98499.16;5037588;28;20493;-51
2023/11/28 07:32:43;;;;;;;0.20;0.10;;;;;;;3.71;98.26;98510.69;5039074;28;20494;-57
2023/11/28 07:35:09;;;;;;;0.20;0.10;;;;;;;3.83;98.29;98522.56;5048045;28;20509;-52
2023/11/28 07:37:36;;;;;;;0.20;0.10;;;;;;;3.87;98.07;98521.59;5050301;28;20470;-52
2023/11/28 07:40:04;;;;;;;0.20;0.13;;;;;;;3.81;97.44;98530.50;5044710;28;20444;-50
2023/11/28 07:42:30;;;;;;;0.20;0.20;;;;;;;3.90;98.21;98533.78;5037684;28;20970;-52
2023/11/28 07:44:57;;;;;;;0.20;0.20;;;;;;;3.89;98.17;98537.31;5052123;28;20545;-54
2023/11/28 07:47:23;;;;;;;0.20;0.20;;;;;;;3.81;97.48;98548.91;5051684;28;20475;-52
2023/11/28 07:49:50;;;;;;;0.20;0.10;;;;;;;3.86;96.79;98548.78;5051750;28;20517;-53
2023/11/28 07:52:17;;;;;;;0.20;0.10;;;;;;;3.75;97.28;98561.38;5051745;28;20489;-49
2023/11/28 07:54:44;;;;;;;0.20;0.10;;;;;;;3.66;95.75;98570.34;5051420;28;20997;-53
2023/11/28 07:57:10;;;;;;;0.20;0.10;;;;;;;3.86;95.66;98575.06;5051920;28;20994;-51
2023/11/28 07:59:37;;;;;;;0.20;0.10;;;;;;;3.69;96.05;98578.16;5044552;28;20444;-51
2023/11/28 08:02:03;;;;;;;0.20;0.10;;;;;;;3.77;96.69;98578.81;5045068;28;20990;-52
2023/11/28 08:04:30;;;;;;;0.20;0.10;;;;;;;3.65;96.17;98589.66;5041881;28;20943;-49
2023/11/28 08:06:56;;;;;;;0.20;0.10;;;;;;;3.97;95.78;98598.38;5049208;28;20521;-51
2023/11/28 08:09:23;;;;;;;0.20;0.10;;;;;;;3.88;95.95;98604.78;5041130;28;20518;-48
2023/11/28 08:11:49;;;;;;;0.20;0.10;;;;;;;3.99;95.77;98617.63;5050492;28;20557;-52
2023/11/28 08:14:16;;;;;;;0.20;0.10;;;;;;;3.85;95.66;98625.91;5051879;28;20451;-54
2023/11/28 08:16:47;;;;;;;0.20;0.20;;;;;;;3.75;95.29;98629.69;5051423;28;20466;-56
2023/11/28 08:19:14;;;;;;;0.20;0.10;;;;;;;3.81;94.85;98638.25;5051130;28;20482;-54
2023/11/28 08:21:40;;;;;;;0.20;0.10;;;;;;;3.81;94.50;98647.88;5051593;28;20548;-54
2023/11/28 08:24:07;;;;;;;0.20;0.10;;;;;;;3.76;95.24;98650.66;5045802;28;20458;-55
2023/11/28 08:26:33;;;;;;;0.20;0.10;;;;;;;3.89;94.33;98658.19;5054322;22;20598;-53
2023/11/28 08:29:00;;;;;;;0.20;0.10;;;;;;;3.89;94.55;98660.81;5023974;28;20483;-54
2023/11/28 08:31:26;;;;;;;0.20;0.10;;;;;;;3.77;94.72;98660.25;5032442;28;20529;-54
2023/11/28 08:33:53;;;;;;;0.20;0.10;;;;;;;3.83;94.53;98654.81;5034407;28;20458;-54
2023/11/28 08:36:19;;;;;;;0.20;0.10;;;;;;;3.74;94.60;98660.34;5032798;28;20499;-56
2023/11/28 08:38:46;;;;;;;0.20;0.10;;;;;;;3.78;94.59;98661.13;5032867;28;20451;-55
2023/11/28 08:41:12;;;;;;;0.20;0.20;;;;;;;3.71;95.63;98657.81;5019608;28;20586;-55
2023/11/28 08:43:39;;;;;;;0.20;0.17;;;;;;;3.72;94.89;98669.19;5033709;28;20486;-55
2023/11/28 08:46:05;;;;;;;0.20;0.20;;;;;;;3.72;94.96;98675.31;5030514;28;20932;-61
2023/11/28 08:48:32;;;;;;;0.20;0.10;;;;;;;3.71;95.00;98681.47;5024477;28;20477;-55
2023/11/28 08:50:59;;;;;;;0.20;0.10;;;;;;;3.82;94.38;98684.63;5033595;28;20486;-55
2023/11/28 08:53:25;;;;;;;0.20;0.10;;;;;;;3.69;94.86;98699.00;5021574;28;20511;-56
2023/11/28 08:55:52;;;;;;;0.20;0.10;;;;;;;3.71;94.49;98699.00;5036301;28;20466;-55
2023/11/28 08:58:18;;;;;;;0.20;0.10;;;;;;;3.81;94.77;98709.19;5041935;28;20448;-56
2023/11/28 09:00:45;;;;;;;0.20;0.10;;;;;;;3.79;94.53;98721.50;5020639;28;20461;-55
2023/11/28 09:03:11;;;;;;;0.20;0.10;;;;;;;3.71;94.12;98728.75;5041897;28;20573;-56
2023/11/28 09:05:38;;;;;;;0.20;0.10;;;;;;;3.73;93.81;98729.56;5027497;28;20447;-56
2023/11/28 09:08:04;;;;;;;0.20;0.10;;;;;;;3.77;94.18;98738.22;5035743;28;20936;-54
2023/11/28 09:10:31;;;;;;;0.20;0.10;;;;;;;3.76;94.63;98744.38;5023085;28;20487;-55
2023/11/28 09:12:58;;;;;;;0.20;0.10;;;;;;;3.88;94.18;98746.69;5034974;28;20517;-55
2023/11/28 09:15:24;;;;;;;0.20;0.10;;;;;;;3.74;93.95;98756.72;5032865;28;20456;-56
2023/11/28 09:17:51;;;;;;;0.20;0.10;;;;;;;3.89;93.28;98761.56;5028456;28;20563;-55
2023/11/28 09:20:17;;;;;;;0.20;0.10;;;;;;;3.76;93.51;98763.63;5023090;28;20455;-56
2023/11/28 09:22:44;;;;;;;0.20;0.20;;;;;;;3.78;93.78;98777.59;5036794;28;20447;-55
2023/11/28 09:25:10;;;;;;;0.20;0.20;;;;;;;3.83;94.13;98778.34;5023344;28;20936;-55
2023/11/28 09:27:37;;;;;;;0.20;0.10;;;;;;;3.82;93.76;98791.50;5036686;28;20483;-57
2023/11/28 09:30:04;;;;;;;0.20;0.20;;;;;;;3.80;92.96;98795.94;5025088;28;20521;-56
2023/11/28 09:32:31;;;;;;;0.20;0.20;;;;;;;3.77;93.28;98801.28;5025970;28;20965;-56
2023/11/28 09:34:57;;;;;;;0.20;0.10;;;;;;;3.96;93.28;98802.53;5031821;28;20467;-56
2023/11/28 09:37:24;;;;;;;0.20;0.10;;;;;;;3.69;93.78;98811.97;5019776;28;20468;-56
2023/11/28 09:39:50;;;;;;;0.20;0.10;;;;;;;3.76;92.68;98825.84;5032731;28;20486;-56
2023/11/28 09:42:20;;;;;;;0.20;0.10;;;;;;;3.76;92.63;98833.72;5045642;28;20455;-56
2023/11/28 09:44:48;;;;;;;0.20;0.20;;;;;;;3.91;93.44;98838.59;5045377;28;20566;-55
2023/11/28 09:47:17;;;;;;;0.20;0.10;;;;;;;3.90;93.44;98836.00;5035334;28;20512;-55
2023/11/28 09:49:46;;;;;;;0.20;0.10;;;;;;;3.98;93.32;98848.06;5024046;28;20499;-56
2023/11/28 09:52:14;;;;;;;0.20;0.10;;;;;;;3.98;93.21;98849.84;5035340;28;20459;-55
2023/11/28 09:54:42;;;;;;;0.20;0.10;;;;;;;4.03;92.87;98858.47;5047100;28;20500;-55
2023/11/28 09:57:10;;;;;;;0.20;0.13;;;;;;;3.85;92.20;98862.41;5040792;28;20480;-55
2023/11/28 09:59:38;;;;;;;0.20;0.10;;;;;;;4.05;92.18;98870.66;5027076;28;20448;-55
2023/11/28 10:02:14;;;;;;;0.20;0.10;;;;;;;3.90;91.84;98872.81;5032131;28;20605;-55
2023/11/28 10:04:42;;;;;;;0.20;0.13;;;;;;;4.06;92.08;98867.13;5033002;28;20525;-56
2023/11/28 10:07:11;;;;;;;0.20;0.10;;;;;;;4.01;91.70;98863.75;5033656;28;20472;-55
2023/11/28 10:09:43;;;;;;;0.20;0.20;;;;;;;3.82;91.83;98865.09;5024376;28;20674;-55
2023/11/28 10:12:10;;;;;;;0.20;0.10;;;;;;;3.81;91.46;98879.13;5034809;28;20495;-54
2023/11/28 10:14:39;;;;;;;0.20;0.10;;;;;;;3.81;90.89;98880.00;5039939;28;20448;-56
2023/11/28 10:17:09;;;;;;;0.20;0.20;;;;;;;3.84;91.91;98874.69;5021892;28;20554;-55
2023/11/28 10:19:36;;;;;;;0.20;0.10;;;;;;;3.82;91.68;98876.47;5046570;28;20505;-55
2023/11/28 10:22:08;;;;;;;0.20;0.10;;;;;;;3.85;90.78;98888.69;5036358;28;20454;-56
2023/11/28 10:24:35;;;;;;;1.10;1.10;;;;;;;3.90;91.08;98891.22;5032641;28;20451;-56
2023/11/28 10:27:03;;;;;;;0.20;0.20;;;;;;;3.89;91.88;98882.47;5035014;28;20574;-56
2023/11/28 10:29:29;;;;;;;0.20;0.10;;;;;;;3.80;91.42;98888.78;5034799;28;20452;-54
2023/11/28 10:31:56;;;;;;;0.20;0.20;;;;;;;3.97;90.44;98892.78;5023858;28;20485;-56
2023/11/28 10:34:22;;;;;;;0.20;0.10;;;;;;;3.78;91.70;98893.22;5033975;28;20503;-55
2023/11/28 10:36:49;;;;;;;0.20;0.10;;;;;;;3.97;91.04;98900.66;5034649;28;20847;-56
2023/11/28 10:39:19;;;;;;;0.20;0.10;;;;;;;3.85;90.70;98897.44;5033415;28;20475;-55
2023/11/28 10:41:47;;;;;;;0.20;0.10;;;;;;;3.99;90.24;98904.13;5023711;28;20448;-56
2023/11/28 10:44:13;;;;;;;0.20;0.10;;;;;;;3.99;90.48;98906.75;5032427;28;20534;-56
2023/11/28 10:46:40;;;;;;;0.20;0.10;;;;;;;3.97;90.15;98905.91;5024108;28;21000;-55
2023/11/28 10:49:07;;;;;;;0.20;0.10;;;;;;;4.34;89.93;98913.75;5045983;28;20485;-56
2023/11/28 10:51:35;;;;;;;0.20;0.10;;;;;;;4.20;90.61;98918.50;5025246;28;20867;-56
2023/11/28 10:54:09;;;;;;;0.20;0.10;;;;;;;4.42;89.95;98927.59;5031152;28;20498;-55
2023/11/28 10:56:46;;;;;;;0.20;0.10;;;;;;;4.47;89.96;98930.94;5035174;28;20525;-55
2023/11/28 10:59:35;;;;;;;0.20;0.10;;;;;;;4.19;89.89;98928.16;5020237;28;20457;-55
2023/11/28 11:02:06;;;;;;;0.20;0.20;;;;;;;4.19;90.69;98929.94;5029605;28;20889;-55
2023/11/28 11:04:34;;;;;;;0.20;0.10;;;;;;;4.04;90.89;98941.69;5028814;28;20827;-55
2023/11/28 11:07:00;;;;;;;0.20;0.10;;;;;;;4.03;91.43;98940.81;5012958;28;20916;-55
2023/11/28 11:09:27;;;;;;;0.20;0.20;;;;;;;4.00;91.67;98943.53;5013773;28;21012;-55
2023/11/28 11:11:55;;;;;;;0.20;0.10;;;;;;;4.10;92.57;98945.00;5027098;28;20945;-55
2023/11/28 11:14:44;;;;;;;0.20;0.10;;;;;;;3.75;93.17;98961.63;5028834;28;20547;-56
2023/11/28 11:17:21;;;;;;;0.20;0.20;;;;;;;3.79;93.95;98968.53;5027067;28;20469;-55
2023/11/28 11:19:53;;;;;;;0.20;0.10;;;;;;;3.71;93.66;98967.84;5029374;28;20476;-56
2023/11/28 11:22:22;;;;;;;0.20;0.20;;;;;;;3.68;93.44;98983.66;5033882;28;20955;-56
2023/11/28 11:24:49;;;;;;;0.87;0.87;;;;;;;3.38;94.00;98985.19;5017110;28;20944;-55
2023/11/28 11:27:18;;;;;;;0.20;0.10;;;;;;;3.58;93.56;98983.91;5027381;28;20563;-55
2023/11/28 11:29:46;;;;;;;0.20;0.10;;;;;;;3.54;94.01;98994.47;5029604;28;20547;-59
2023/11/28 11:32:15;;;;;;;0.20;0.10;;;;;;;3.58;93.66;99002.31;5022285;28;20535;-56
2023/11/28 11:34:44;;;;;;;0.20;0.20;;;;;;;3.60;93.81;99008.41;5033697;28;20457;-55
2023/11/28 11:37:15;;;;;;;0.20;0.10;;;;;;;3.49;93.28;99003.34;5042082;28;20834;-55